GCGM/GMZ METAR and TAF weather

Enter ICAO airport designator
Station Type Date Time Source
GCGM METAR 2020/02/24 23:00 UTC NOAA

GCGM 242300Z AUTO 06012KT 010V120 CAVOK 27/07 Q1024 RMK R09/07012KT ARP/07012KT 040V120


Station Type Date Time Source
GCGM Decoded METAR 2020/02/24 23:00 UTC NOAA

Station name not available
Feb 24, 2020 - 06:00 PM EST / 2020.02.24 2300 UTC
Wind: from the ENE (060 degrees) at 14 MPH (12 KT) (direction variable):0
Visibility: greater than 7 mile(s):0
Temperature: 80 F (27 C)
Dew Point: 44 F (7 C)
Relative Humidity: 28%
Pressure (altimeter): 30.24 in. Hg (1024 hPa)
ob: GCGM 242300Z AUTO 06012KT 010V120 CAVOK 27/07 Q1024 RMK R09/07012KT ARP/07012KT 040V120
cycle: 23

Station Type Date Time Source
GCGM TAF 2020/02/24 21:00 UTC NOAA

TAF GCGM 242000Z 2421/2521 04011KT 7000 NSC TX27/2513Z TN20/2506Z PROB30
TEMPO 2421/2503 4500 HZ

Example: see airport list